FWI042 LFPO-TFFR
Flight info
| Callsign | FWI042 |
|---|---|
| Flight time | N/A |
| Altitude | 38000 |
| Route | LGL UN491 OTOFE DCT ALUTA DCT TAKAS/M085F380 DCT OMOKO DCT 4730N02000W 45N030W 4030N04000W/M085F400 34N050W 30N055W 24N059W DCT BNJEE/N0481F400 DCT BOSET BOSET2A |
| Aircraft | A359/H-SDE2E3GHIJ3J4J5LM1ORWXY/LB1D1 |
Departure
| Time | N/A |
|---|---|
| Airport | Paris-Orly Airport (LFPO) |
Arrival
| Time | 2026-04-18 11:15 |
|---|---|
| Airport | Maryse Condé International Airport (TFFR) |
| Time | Latitude | Longitude | Altitude | Speed | Heading |
|---|---|---|---|---|---|
| 2026-04-18 09:54 | 24.65691 | -58.58534 | 38138 ft | 465 kts | 213° |
| 2026-04-18 09:54 | 24.60008 | -58.62143 | 38136 ft | 478 kts | 213° |
| 2026-04-18 09:55 | 24.54195 | -58.65828 | 38131 ft | 485 kts | 213° |
| 2026-04-18 09:55 | 24.48355 | -58.69522 | 38133 ft | 484 kts | 213° |
| 2026-04-18 09:56 | 24.42523 | -58.73209 | 38130 ft | 483 kts | 213° |
| 2026-04-18 09:56 | 24.36694 | -58.76893 | 38127 ft | 483 kts | 213° |
| 2026-04-18 09:57 | 24.30864 | -58.80573 | 38129 ft | 483 kts | 213° |
| 2026-04-18 09:57 | 24.25042 | -58.84246 | 38123 ft | 483 kts | 213° |
| 2026-04-18 09:58 | 24.19258 | -58.87890 | 38124 ft | 483 kts | 213° |
| 2026-04-18 09:58 | 24.13397 | -58.91578 | 38125 ft | 482 kts | 213° |
| 2026-04-18 09:59 | 24.07618 | -58.95212 | 38122 ft | 482 kts | 213° |
| 2026-04-18 10:00 | 23.98559 | -59.00036 | 38125 ft | 489 kts | 199° |
| 2026-04-18 10:00 | 23.91878 | -59.01547 | 38125 ft | 492 kts | 193° |
| 2026-04-18 10:01 | 23.85115 | -59.02718 | 38120 ft | 492 kts | 192° |
| 2026-04-18 10:01 | 23.78347 | -59.03828 | 38121 ft | 492 kts | 192° |
| 2026-04-18 10:02 | 23.71583 | -59.04947 | 38119 ft | 491 kts | 192° |
| 2026-04-18 10:02 | 23.64836 | -59.06095 | 38116 ft | 491 kts | 192° |
| 2026-04-18 10:03 | 23.58086 | -59.07260 | 38112 ft | 490 kts | 193° |
| 2026-04-18 10:03 | 23.51349 | -59.08426 | 38112 ft | 490 kts | 193° |
| 2026-04-18 10:04 | 23.44616 | -59.09588 | 38116 ft | 490 kts | 193° |
| 2026-04-18 10:04 | 23.37917 | -59.10742 | 38116 ft | 489 kts | 193° |
| 2026-04-18 10:05 | 23.31184 | -59.11903 | 38115 ft | 489 kts | 193° |
| 2026-04-18 10:05 | 23.24463 | -59.13059 | 38110 ft | 488 kts | 193° |
| 2026-04-18 10:06 | 23.18884 | -59.14017 | 38110 ft | 488 kts | 193° |
| 2026-04-18 10:06 | 23.12183 | -59.15167 | 38110 ft | 487 kts | 193° |
| 2026-04-18 10:07 | 23.05489 | -59.16315 | 38105 ft | 486 kts | 193° |
| 2026-04-18 10:07 | 22.98806 | -59.17460 | 38110 ft | 486 kts | 193° |
| 2026-04-18 10:08 | 22.92126 | -59.18603 | 38111 ft | 485 kts | 193° |
| 2026-04-18 10:08 | 22.85459 | -59.19743 | 38109 ft | 484 kts | 193° |
| 2026-04-18 10:09 | 22.78804 | -59.20880 | 38103 ft | 484 kts | 193° |
| 2026-04-18 10:09 | 22.72151 | -59.22015 | 38107 ft | 483 kts | 193° |
| 2026-04-18 10:10 | 22.65556 | -59.23139 | 38099 ft | 482 kts | 193° |
| 2026-04-18 10:10 | 22.58930 | -59.24268 | 38102 ft | 482 kts | 193° |
| 2026-04-18 10:11 | 22.52257 | -59.25406 | 38102 ft | 490 kts | 193° |
| 2026-04-18 10:11 | 22.45476 | -59.26562 | 38099 ft | 495 kts | 193° |
| 2026-04-18 10:12 | 22.38680 | -59.27713 | 38098 ft | 494 kts | 193° |
| 2026-04-18 10:12 | 22.31893 | -59.28861 | 38097 ft | 493 kts | 194° |
| 2026-04-18 10:13 | 22.25121 | -59.30008 | 38095 ft | 492 kts | 194° |
| 2026-04-18 10:13 | 22.18365 | -59.31152 | 38094 ft | 491 kts | 194° |
| 2026-04-18 10:14 | 22.11622 | -59.32293 | 38094 ft | 490 kts | 194° |
| 2026-04-18 10:14 | 22.04919 | -59.33426 | 38090 ft | 490 kts | 194° |
| 2026-04-18 10:15 | 21.98189 | -59.34563 | 38089 ft | 489 kts | 194° |
| 2026-04-18 10:15 | 21.91466 | -59.35696 | 38094 ft | 488 kts | 194° |
| 2026-04-18 10:16 | 21.84757 | -59.36827 | 38088 ft | 488 kts | 194° |
| 2026-04-18 10:16 | 21.78057 | -59.37954 | 38089 ft | 487 kts | 194° |
| 2026-04-18 10:17 | 21.71366 | -59.39079 | 38086 ft | 486 kts | 194° |
| 2026-04-18 10:17 | 21.64725 | -59.40195 | 38083 ft | 486 kts | 194° |
| 2026-04-18 10:18 | 21.58050 | -59.41315 | 38083 ft | 485 kts | 194° |
| 2026-04-18 10:18 | 21.51385 | -59.42433 | 38081 ft | 484 kts | 194° |
| 2026-04-18 10:19 | 21.44730 | -59.43549 | 38082 ft | 484 kts | 194° |
| 2026-04-18 10:19 | 21.38075 | -59.44663 | 38076 ft | 483 kts | 194° |
| 2026-04-18 10:20 | 21.31435 | -59.45773 | 38080 ft | 483 kts | 194° |
| 2026-04-18 10:20 | 21.24805 | -59.46881 | 38076 ft | 482 kts | 194° |
| 2026-04-18 10:21 | 21.18176 | -59.47988 | 38073 ft | 481 kts | 195° |
| 2026-04-18 10:21 | 21.11560 | -59.49091 | 38071 ft | 481 kts | 195° |
| 2026-04-18 10:22 | 21.04956 | -59.50191 | 38072 ft | 480 kts | 195° |
| 2026-04-18 10:22 | 20.98358 | -59.51289 | 38075 ft | 479 kts | 195° |
| 2026-04-18 10:23 | 20.91772 | -59.52385 | 38072 ft | 478 kts | 195° |
| 2026-04-18 10:23 | 20.85195 | -59.53478 | 38072 ft | 477 kts | 195° |
| 2026-04-18 10:24 | 20.78681 | -59.54560 | 38070 ft | 477 kts | 195° |
| 2026-04-18 10:24 | 20.72089 | -59.55653 | 38071 ft | 476 kts | 195° |
| 2026-04-18 10:25 | 20.65555 | -59.56736 | 38067 ft | 475 kts | 195° |
| 2026-04-18 10:25 | 20.59076 | -59.57809 | 38069 ft | 474 kts | 195° |
| 2026-04-18 10:26 | 20.52555 | -59.58888 | 38063 ft | 473 kts | 195° |
| 2026-04-18 10:26 | 20.46058 | -59.59961 | 38062 ft | 472 kts | 195° |
| 2026-04-18 10:27 | 20.39561 | -59.61035 | 38062 ft | 471 kts | 195° |
| 2026-04-18 10:27 | 20.33092 | -59.62102 | 38062 ft | 470 kts | 195° |
| 2026-04-18 10:28 | 20.26632 | -59.63167 | 38058 ft | 469 kts | 195° |
| 2026-04-18 10:28 | 20.20178 | -59.64230 | 38059 ft | 468 kts | 195° |
| 2026-04-18 10:29 | 20.13778 | -59.65284 | 38057 ft | 468 kts | 195° |
| 2026-04-18 10:29 | 20.07348 | -59.66342 | 38056 ft | 467 kts | 195° |
| 2026-04-18 10:30 | 20.00927 | -59.67396 | 38054 ft | 466 kts | 195° |
| 2026-04-18 10:30 | 19.94525 | -59.68448 | 38055 ft | 465 kts | 196° |
| 2026-04-18 10:31 | 19.88133 | -59.69496 | 38051 ft | 464 kts | 196° |
| 2026-04-18 10:31 | 19.81754 | -59.70542 | 38051 ft | 463 kts | 196° |
| 2026-04-18 10:32 | 19.75398 | -59.71583 | 38050 ft | 462 kts | 196° |
| 2026-04-18 10:32 | 19.69053 | -59.72622 | 38049 ft | 460 kts | 196° |
| 2026-04-18 10:33 | 19.62725 | -59.73657 | 38049 ft | 460 kts | 196° |
| 2026-04-18 10:33 | 19.56409 | -59.74690 | 38044 ft | 459 kts | 196° |
| 2026-04-18 10:34 | 19.50094 | -59.75721 | 38045 ft | 459 kts | 196° |
| 2026-04-18 10:34 | 19.43787 | -59.76750 | 38046 ft | 458 kts | 196° |
| 2026-04-18 10:35 | 19.37537 | -59.77769 | 38042 ft | 457 kts | 196° |
| 2026-04-18 10:35 | 19.31245 | -59.78794 | 38042 ft | 457 kts | 196° |
| 2026-04-18 10:36 | 19.24965 | -59.79816 | 38038 ft | 456 kts | 196° |
| 2026-04-18 10:36 | 19.18686 | -59.80838 | 38039 ft | 456 kts | 197° |
| 2026-04-18 10:37 | 19.12413 | -59.81857 | 38045 ft | 456 kts | 197° |
| 2026-04-18 10:37 | 19.06195 | -59.82870 | 38055 ft | 456 kts | 196° |
| 2026-04-18 10:38 | 18.99899 | -59.83919 | 38037 ft | 459 kts | 196° |
| 2026-04-18 10:38 | 18.93576 | -59.84941 | 38035 ft | 459 kts | 195° |
| 2026-04-18 10:39 | 18.87260 | -59.85946 | 38036 ft | 459 kts | 195° |
| 2026-04-18 10:39 | 18.80958 | -59.86958 | 38040 ft | 458 kts | 195° |
| 2026-04-18 10:40 | 18.74667 | -59.87975 | 38031 ft | 457 kts | 196° |
| 2026-04-18 10:40 | 18.68381 | -59.88992 | 38028 ft | 456 kts | 196° |
| 2026-04-18 10:41 | 18.62107 | -59.90007 | 38031 ft | 456 kts | 196° |
| 2026-04-18 10:41 | 18.55828 | -59.91021 | 38024 ft | 456 kts | 196° |
| 2026-04-18 10:42 | 18.49559 | -59.92032 | 38033 ft | 456 kts | 196° |
| 2026-04-18 10:42 | 18.43294 | -59.93042 | 38031 ft | 455 kts | 196° |
| 2026-04-18 10:43 | 18.37074 | -59.94044 | 38030 ft | 455 kts | 196° |
| 2026-04-18 10:43 | 18.30818 | -59.95051 | 38028 ft | 455 kts | 196° |
| 2026-04-18 10:44 | 18.24556 | -59.96058 | 38026 ft | 455 kts | 196° |
| 2026-04-18 10:44 | 18.18302 | -59.97064 | 38024 ft | 454 kts | 196° |
| 2026-04-18 10:44 | 18.15223 | -59.97553 | 37871 ft | 442 kts | 196° |
| 2026-04-18 10:45 | 18.12197 | -59.98032 | 37336 ft | 438 kts | 196° |
| 2026-04-18 10:45 | 18.09176 | -59.98518 | 36616 ft | 439 kts | 195° |
| 2026-04-18 10:45 | 18.06147 | -59.99010 | 36171 ft | 443 kts | 195° |
| 2026-04-18 10:45 | 18.03107 | -59.99617 | 36033 ft | 444 kts | 201° |
| 2026-04-18 10:46 | 18.00210 | -60.00689 | 36022 ft | 439 kts | 210° |
| 2026-04-18 10:46 | 17.95233 | -60.04232 | 36021 ft | 431 kts | 223° |
| 2026-04-18 10:47 | 17.90682 | -60.08322 | 36020 ft | 430 kts | 224° |
| 2026-04-18 10:47 | 17.86144 | -60.12422 | 36016 ft | 431 kts | 224° |
| 2026-04-18 10:48 | 17.81591 | -60.16515 | 36017 ft | 431 kts | 224° |
| 2026-04-18 10:48 | 17.77036 | -60.20600 | 36015 ft | 431 kts | 224° |
| 2026-04-18 10:49 | 17.72505 | -60.24659 | 36013 ft | 431 kts | 224° |
| 2026-04-18 10:49 | 17.67945 | -60.28740 | 36015 ft | 431 kts | 224° |
| 2026-04-18 10:50 | 17.63410 | -60.32793 | 35417 ft | 426 kts | 224° |
| 2026-04-18 10:50 | 17.61147 | -60.34818 | 34716 ft | 428 kts | 224° |
| 2026-04-18 10:50 | 17.58880 | -60.36844 | 34036 ft | 429 kts | 224° |
| 2026-04-18 10:50 | 17.56607 | -60.38875 | 33352 ft | 429 kts | 224° |
| 2026-04-18 10:51 | 17.54339 | -60.40900 | 32753 ft | 427 kts | 224° |
| 2026-04-18 10:51 | 17.52080 | -60.42915 | 32178 ft | 426 kts | 224° |
| 2026-04-18 10:51 | 17.49832 | -60.44921 | 31612 ft | 424 kts | 224° |
| 2026-04-18 10:51 | 17.47588 | -60.46923 | 31034 ft | 423 kts | 224° |
| 2026-04-18 10:52 | 17.45350 | -60.48919 | 30462 ft | 422 kts | 224° |
| 2026-04-18 10:52 | 17.43114 | -60.50913 | 29892 ft | 422 kts | 223° |
| 2026-04-18 10:52 | 17.40882 | -60.52902 | 29302 ft | 420 kts | 223° |
| 2026-04-18 10:52 | 17.38664 | -60.54877 | 28774 ft | 417 kts | 223° |
| 2026-04-18 10:53 | 17.36466 | -60.56835 | 28248 ft | 414 kts | 223° |
| 2026-04-18 10:53 | 17.35017 | -60.58125 | 27901 ft | 412 kts | 223° |
| 2026-04-18 10:53 | 17.32133 | -60.60692 | 27201 ft | 410 kts | 223° |
| 2026-04-18 10:53 | 17.29968 | -60.62619 | 26685 ft | 407 kts | 223° |
| 2026-04-18 10:54 | 17.27814 | -60.64534 | 26176 ft | 405 kts | 223° |
| 2026-04-18 10:54 | 17.25668 | -60.66443 | 25660 ft | 404 kts | 223° |
| 2026-04-18 10:54 | 17.23535 | -60.68342 | 25156 ft | 402 kts | 223° |
| 2026-04-18 10:54 | 17.21545 | -60.70377 | 24638 ft | 399 kts | 229° |
| 2026-04-18 10:55 | 17.19713 | -60.72549 | 24149 ft | 397 kts | 231° |
| 2026-04-18 10:55 | 17.18529 | -60.73995 | 23835 ft | 395 kts | 231° |
| 2026-04-18 10:55 | 17.16752 | -60.76179 | 23314 ft | 393 kts | 232° |
| 2026-04-18 10:55 | 17.14986 | -60.78355 | 22777 ft | 391 kts | 232° |
| 2026-04-18 10:56 | 17.13232 | -60.80515 | 22272 ft | 388 kts | 232° |
| 2026-04-18 10:56 | 17.11492 | -60.82653 | 21775 ft | 384 kts | 231° |
| 2026-04-18 10:56 | 17.09764 | -60.84770 | 21269 ft | 382 kts | 231° |
| 2026-04-18 10:56 | 17.08045 | -60.86871 | 20768 ft | 379 kts | 231° |
| 2026-04-18 10:57 | 17.06337 | -60.88954 | 20280 ft | 376 kts | 231° |
| 2026-04-18 10:57 | 17.04639 | -60.91023 | 19818 ft | 373 kts | 231° |
| 2026-04-18 10:57 | 17.02953 | -60.93074 | 19350 ft | 370 kts | 231° |
| 2026-04-18 10:57 | 17.01278 | -60.95110 | 18887 ft | 368 kts | 231° |
| 2026-04-18 10:58 | 16.99619 | -60.97130 | 18439 ft | 365 kts | 230° |
| 2026-04-18 10:58 | 16.97966 | -60.99136 | 17893 ft | 364 kts | 230° |
| 2026-04-18 10:58 | 16.96319 | -61.01133 | 17370 ft | 361 kts | 230° |
| 2026-04-18 10:58 | 16.94684 | -61.03116 | 16848 ft | 359 kts | 230° |
| 2026-04-18 10:59 | 16.93063 | -61.05088 | 16348 ft | 357 kts | 230° |
| 2026-04-18 10:59 | 16.91866 | -61.06548 | 15962 ft | 355 kts | 231° |
| 2026-04-18 10:59 | 16.90262 | -61.08506 | 15465 ft | 353 kts | 231° |
| 2026-04-18 10:59 | 16.88669 | -61.10443 | 14972 ft | 351 kts | 230° |
| 2026-04-18 11:00 | 16.87080 | -61.12366 | 14476 ft | 349 kts | 230° |
| 2026-04-18 11:00 | 16.85498 | -61.14280 | 13997 ft | 347 kts | 230° |
| 2026-04-18 11:00 | 16.83949 | -61.16157 | 13510 ft | 345 kts | 230° |
| 2026-04-18 11:00 | 16.82369 | -61.18075 | 12945 ft | 343 kts | 230° |
| 2026-04-18 11:01 | 16.80838 | -61.19933 | 12424 ft | 341 kts | 230° |
| 2026-04-18 11:01 | 16.79295 | -61.21808 | 11899 ft | 339 kts | 230° |
| 2026-04-18 11:01 | 16.77761 | -61.23675 | 11370 ft | 338 kts | 230° |
| 2026-04-18 11:02 | 16.74717 | -61.27376 | 10363 ft | 334 kts | 230° |
| 2026-04-18 11:02 | 16.73334 | -61.29042 | 10116 ft | 326 kts | 230° |
| 2026-04-18 11:02 | 16.72115 | -61.30511 | 9948 ft | 316 kts | 230° |
| 2026-04-18 11:02 | 16.70764 | -61.32145 | 9745 ft | 306 kts | 230° |
| 2026-04-18 11:03 | 16.69399 | -61.33801 | 9463 ft | 299 kts | 230° |
| 2026-04-18 11:03 | 16.68058 | -61.35440 | 9111 ft | 295 kts | 230° |
| 2026-04-18 11:03 | 16.66733 | -61.37055 | 8992 ft | 292 kts | 230° |
| 2026-04-18 11:03 | 16.65406 | -61.38668 | 8981 ft | 293 kts | 230° |
| 2026-04-18 11:04 | 16.64077 | -61.40280 | 8982 ft | 293 kts | 230° |
| 2026-04-18 11:04 | 16.62762 | -61.41873 | 8893 ft | 294 kts | 230° |
| 2026-04-18 11:04 | 16.61414 | -61.43503 | 8783 ft | 292 kts | 230° |
| 2026-04-18 11:04 | 16.60156 | -61.45024 | 8923 ft | 293 kts | 230° |
| 2026-04-18 11:05 | 16.58830 | -61.46626 | 8975 ft | 292 kts | 230° |
| 2026-04-18 11:05 | 16.57515 | -61.48216 | 8590 ft | 289 kts | 230° |
| 2026-04-18 11:05 | 16.56197 | -61.49810 | 8130 ft | 291 kts | 229° |
| 2026-04-18 11:05 | 16.54876 | -61.51405 | 7716 ft | 291 kts | 229° |
| 2026-04-18 11:06 | 16.53573 | -61.52979 | 7300 ft | 290 kts | 229° |
| 2026-04-18 11:06 | 16.52258 | -61.54565 | 6908 ft | 289 kts | 229° |
| 2026-04-18 11:06 | 16.50940 | -61.56149 | 6513 ft | 289 kts | 228° |
| 2026-04-18 11:06 | 16.49628 | -61.57730 | 6103 ft | 288 kts | 228° |
| 2026-04-18 11:07 | 16.48316 | -61.59309 | 5663 ft | 288 kts | 227° |
| 2026-04-18 11:07 | 16.47061 | -61.60939 | 5239 ft | 289 kts | 231° |
| 2026-04-18 11:07 | 16.45907 | -61.62640 | 4884 ft | 286 kts | 233° |
| 2026-04-18 11:07 | 16.44799 | -61.64326 | 4690 ft | 277 kts | 233° |
| 2026-04-18 11:08 | 16.43733 | -61.65956 | 4533 ft | 267 kts | 233° |
| 2026-04-18 11:08 | 16.42706 | -61.67531 | 4397 ft | 258 kts | 233° |
| 2026-04-18 11:08 | 16.41714 | -61.69052 | 4250 ft | 249 kts | 233° |
| 2026-04-18 11:08 | 16.40681 | -61.70469 | 4026 ft | 243 kts | 222° |
| 2026-04-18 11:09 | 16.39382 | -61.71557 | 3781 ft | 238 kts | 211° |
| 2026-04-18 11:09 | 16.38016 | -61.72512 | 3550 ft | 234 kts | 210° |
| 2026-04-18 11:09 | 16.36663 | -61.73432 | 3469 ft | 232 kts | 210° |
| 2026-04-18 11:09 | 16.35299 | -61.74357 | 3501 ft | 232 kts | 210° |
| 2026-04-18 11:10 | 16.34011 | -61.75232 | 3502 ft | 218 kts | 209° |
| 2026-04-18 11:10 | 16.32675 | -61.75889 | 3507 ft | 203 kts | 186° |
| 2026-04-18 11:10 | 16.31346 | -61.75681 | 3528 ft | 192 kts | 146° |
| 2026-04-18 11:10 | 16.30498 | -61.74709 | 3528 ft | 184 kts | 111° |
| 2026-04-18 11:11 | 16.30155 | -61.73431 | 3523 ft | 184 kts | 100° |
| 2026-04-18 11:11 | 16.29934 | -61.72118 | 3511 ft | 183 kts | 98° |
| 2026-04-18 11:11 | 16.29767 | -61.70827 | 3384 ft | 177 kts | 98° |
| 2026-04-18 11:11 | 16.29544 | -61.69576 | 3133 ft | 176 kts | 100° |
| 2026-04-18 11:12 | 16.29305 | -61.68319 | 2812 ft | 178 kts | 99° |
| 2026-04-18 11:12 | 16.29080 | -61.67052 | 2534 ft | 178 kts | 98° |
| 2026-04-18 11:12 | 16.28858 | -61.65792 | 2281 ft | 175 kts | 99° |
| 2026-04-18 11:12 | 16.28629 | -61.64567 | 2041 ft | 171 kts | 99° |
| 2026-04-18 11:13 | 16.28406 | -61.63362 | 1809 ft | 167 kts | 99° |
| 2026-04-18 11:13 | 16.28193 | -61.62194 | 1562 ft | 157 kts | 99° |
| 2026-04-18 11:13 | 16.27999 | -61.61141 | 1355 ft | 144 kts | 100° |
| 2026-04-18 11:13 | 16.27801 | -61.60154 | 1128 ft | 137 kts | 100° |
| 2026-04-18 11:14 | 16.27607 | -61.59173 | 919 ft | 141 kts | 100° |
| 2026-04-18 11:14 | 16.27424 | -61.58170 | 712 ft | 141 kts | 100° |
| 2026-04-18 11:14 | 16.27252 | -61.57150 | 500 ft | 145 kts | 99° |
| 2026-04-18 11:14 | 16.27067 | -61.56114 | 314 ft | 146 kts | 100° |
| 2026-04-18 11:15 | 16.26878 | -61.55074 | 135 ft | 145 kts | 100° |
| 2026-04-18 11:15 | 16.26700 | -61.54089 | 26 ft | 131 kts | 101° |
| 2026-04-18 11:15 | 16.26554 | -61.53312 | 25 ft | 75 kts | 101° |
| 2026-04-18 11:15 | 16.26489 | -61.52958 | 27 ft | 45 kts | 101° |
| 2026-04-18 11:16 | 16.26431 | -61.52654 | 31 ft | 42 kts | 101° |
| 2026-04-18 11:16 | 16.26377 | -61.52357 | 32 ft | 41 kts | 101° |
| 2026-04-18 11:16 | 16.26429 | -61.52230 | 33 ft | 16 kts | 12° |
| 2026-04-18 11:16 | 16.26466 | -61.52222 | 32 ft | 0 kts | 11° |
| 2026-04-18 11:17 | 16.26502 | -61.52215 | 30 ft | 14 kts | 11° |
| 2026-04-18 11:17 | 16.26655 | -61.52185 | 27 ft | 29 kts | 11° |
| 2026-04-18 11:17 | 16.26721 | -61.52208 | 27 ft | 10 kts | 295° |
| 2026-04-18 11:17 | 16.26745 | -61.52311 | 27 ft | 20 kts | 282° |
| 2026-04-18 11:18 | 16.26769 | -61.52446 | 27 ft | 12 kts | 280° |
| 2026-04-18 11:18 | 16.26786 | -61.52537 | 27 ft | 15 kts | 281° |
| 2026-04-18 11:18 | 16.26809 | -61.52661 | 27 ft | 19 kts | 281° |
| 2026-04-18 11:18 | 16.26828 | -61.52688 | 27 ft | 1 kts | 351° |
| 2026-04-18 11:19 | 16.26860 | -61.52683 | 27 ft | 8 kts | 8° |
| 2026-04-18 11:19 | 16.26902 | -61.52676 | 27 ft | 0 kts | 10° |
| 2026-04-18 11:19 | 16.26909 | -61.52674 | 27 ft | 0 kts | 10° |